Time;durP1;ratioP1;P1;durP2;ratioP2;P2;SDS_P1;SDS_P2;PMS_P1;PMS_P2;Temp;Humidity;BMP_temperature;BMP_pressure;BME280_temperature;BME280_humidity;BME280_pressure;Samples;Min_cycle;Max_cycle;Signal;HPM_P1;HPM_P2
2022/11/07 00:01:44;;;;;;;1.37;1.37;;;18.20;70.60;;;;;;5029186;28;44847;-74
2022/11/07 00:04:14;;;;;;;1.60;1.60;;;18.30;71.00;;;;;;5047580;28;43401;-73
2022/11/07 00:06:41;;;;;;;1.47;1.47;;;18.30;70.60;;;;;;5047536;28;43561;-76
2022/11/07 00:09:09;;;;;;;1.37;1.37;;;18.40;70.30;;;;;;5042308;28;44027;-75
2022/11/07 00:11:37;;;;;;;1.20;1.20;;;18.40;70.00;;;;;;5047623;28;43349;-75
2022/11/07 00:14:05;;;;;;;1.30;1.30;;;18.40;69.90;;;;;;5047660;28;43444;-73
2022/11/07 00:16:33;;;;;;;1.30;1.30;;;18.40;70.20;;;;;;5048287;28;43436;-76
2022/11/07 00:19:01;;;;;;;1.43;1.43;;;18.40;70.20;;;;;;5047414;28;43616;-74
2022/11/07 00:21:30;;;;;;;1.40;1.40;;;18.40;70.10;;;;;;5033104;28;45074;-75
2022/11/07 00:23:58;;;;;;;1.33;1.33;;;18.30;70.00;;;;;;5047490;28;43446;-76
2022/11/07 00:26:26;;;;;;;1.13;1.13;;;18.30;70.20;;;;;;5047289;28;43969;-75
2022/11/07 00:28:55;;;;;;;1.40;1.40;;;18.30;70.30;;;;;;5046724;28;43876;-75
2022/11/07 00:31:23;;;;;;;1.30;1.30;;;18.20;70.60;;;;;;5027944;28;45002;-72
2022/11/07 00:33:51;;;;;;;1.40;1.40;;;18.30;70.70;;;;;;5030328;28;43540;-72
2022/11/07 00:36:19;;;;;;;1.60;1.60;;;18.30;70.40;;;;;;5047305;28;43911;-76
2022/11/07 00:38:49;;;;;;;1.27;1.27;;;18.40;70.20;;;;;;5028432;28;45618;-76
2022/11/07 00:41:17;;;;;;;1.30;1.30;;;18.40;70.10;;;;;;5047176;28;43498;-73
2022/11/07 00:43:45;;;;;;;1.40;1.40;;;18.30;70.10;;;;;;5028846;28;43535;-76
2022/11/07 00:46:13;;;;;;;1.30;1.30;;;18.30;70.50;;;;;;5047277;28;43422;-76
2022/11/07 00:48:41;;;;;;;1.30;1.30;;;18.30;70.40;;;;;;5046837;28;44020;-75
2022/11/07 00:51:11;;;;;;;1.30;1.30;;;18.30;70.30;;;;;;5026056;28;45231;-74
2022/11/07 00:53:39;;;;;;;1.37;1.37;;;18.30;70.30;;;;;;5046847;28;43463;-75
2022/11/07 00:56:10;;;;;;;1.20;1.20;;;18.30;70.40;;;;;;5028877;28;43511;-73
2022/11/07 00:58:37;;;;;;;1.60;1.60;;;18.20;70.40;;;;;;5046676;28;43594;-75
2022/11/07 01:01:09;;;;;;;1.30;1.30;;;18.20;70.80;;;;;;5028573;28;44998;-73
2022/11/07 01:06:23;;;;;;;1.10;1.10;;;18.20;70.50;;;;;;5046151;28;43424;-75
2022/11/07 01:08:51;;;;;;;1.27;1.27;;;18.20;70.50;;;;;;5046493;28;44117;-72
2022/11/07 01:11:21;;;;;;;1.43;1.43;;;18.20;70.60;;;;;;5046052;28;43965;-74
2022/11/07 01:13:49;;;;;;;1.30;1.30;;;18.20;70.90;;;;;;5027383;28;43549;-73
2022/11/07 01:16:17;;;;;;;1.30;1.30;;;18.20;71.00;;;;;;5046802;28;43423;-73
2022/11/07 01:18:45;;;;;;;1.20;1.20;;;18.30;70.70;;;;;;5028237;28;44948;-73
2022/11/07 01:21:12;;;;;;;1.20;1.20;;;18.40;70.40;;;;;;5046482;28;43419;-77
2022/11/07 01:23:43;;;;;;;1.10;1.10;;;18.40;70.00;;;;;;5046083;28;43348;-75
2022/11/07 01:26:12;;;;;;;1.40;1.40;;;18.40;70.00;;;;;;5046354;28;43468;-76
2022/11/07 01:28:41;;;;;;;1.40;1.40;;;18.40;70.30;;;;;;5046351;28;43974;-72
2022/11/07 01:31:10;;;;;;;1.40;1.40;;;18.40;70.30;;;;;;5046081;28;43956;-74
2022/11/07 01:33:38;;;;;;;1.30;1.30;;;18.30;70.10;;;;;;5046498;28;43450;-73
2022/11/07 01:36:08;;;;;;;1.20;1.20;;;18.30;70.10;;;;;;5046418;28;43464;-74
2022/11/07 01:38:38;;;;;;;1.50;1.50;;;18.30;70.30;;;;;;5021489;28;45611;-75
2022/11/07 01:43:54;;;;;;;1.37;1.37;;;18.20;70.70;;;;;;5023827;28;43400;-72
2022/11/07 01:46:22;;;;;;;1.30;1.30;;;18.20;70.60;;;;;;5044376;28;43925;-74
2022/11/07 01:48:53;;;;;;;1.27;1.27;;;18.20;70.50;;;;;;5046093;28;44021;-75
2022/11/07 01:51:21;;;;;;;1.40;1.40;;;18.20;70.60;;;;;;5046120;28;43428;-76
2022/11/07 01:53:48;;;;;;;1.30;1.30;;;18.20;70.60;;;;;;5048471;28;43436;-76
2022/11/07 01:56:17;;;;;;;1.30;1.30;;;18.20;70.90;;;;;;5045770;28;43457;-75
2022/11/07 01:58:45;;;;;;;1.30;1.30;;;18.20;70.90;;;;;;5045900;28;43849;-74
2022/11/07 02:01:14;;;;;;;1.20;1.20;;;18.30;70.70;;;;;;5027158;28;44355;-75
2022/11/07 02:03:42;;;;;;;1.30;1.30;;;18.40;71.00;;;;;;5028027;28;44028;-75
2022/11/07 02:06:13;;;;;;;1.00;1.00;;;18.40;69.90;;;;;;5046197;28;43549;-75
2022/11/07 02:08:41;;;;;;;1.40;1.40;;;18.40;69.80;;;;;;5045770;28;43670;-75
2022/11/07 02:11:10;;;;;;;1.20;1.20;;;18.40;70.40;;;;;;5045885;28;43384;-74
2022/11/07 02:13:38;;;;;;;1.27;1.27;;;18.40;70.30;;;;;;5045904;28;43474;-74
2022/11/07 02:16:06;;;;;;;1.50;1.50;;;18.40;70.10;;;;;;5046058;28;43486;-75
2022/11/07 02:18:36;;;;;;;1.37;1.37;;;18.30;70.00;;;;;;5046139;28;43996;-75
2022/11/07 02:21:08;;;;;;;1.10;1.10;;;18.30;70.10;;;;;;5045913;28;43939;-73
2022/11/07 02:23:38;;;;;;;1.10;1.10;;;18.30;70.30;;;;;;5046100;28;43808;-74
2022/11/07 02:26:08;;;;;;;1.40;1.40;;;18.20;70.40;;;;;;5044225;28;43490;-74
2022/11/07 02:28:36;;;;;;;1.30;1.30;;;18.20;70.60;;;;;;5045494;28;43760;-74
2022/11/07 02:31:04;;;;;;;1.03;1.03;;;18.20;70.60;;;;;;5045521;28;43445;-74
2022/11/07 02:33:32;;;;;;;1.13;1.13;;;18.20;70.50;;;;;;5046013;28;43945;-75
2022/11/07 02:36:00;;;;;;;1.27;1.27;;;18.20;70.50;;;;;;5046120;28;44038;-75
2022/11/07 02:38:29;;;;;;;1.03;1.03;;;18.20;70.60;;;;;;5026870;28;45947;-74
2022/11/07 02:40:59;;;;;;;1.30;1.30;;;18.20;71.10;;;;;;5045177;28;43410;-73
2022/11/07 02:43:29;;;;;;;1.40;1.40;;;18.20;71.00;;;;;;5045583;28;43422;-75
2022/11/07 02:45:58;;;;;;;1.20;1.20;;;18.30;70.80;;;;;;5045900;28;43715;-76
2022/11/07 02:48:28;;;;;;;1.30;1.30;;;18.40;70.30;;;;;;5045425;28;43973;-75
2022/11/07 02:50:57;;;;;;;1.10;1.10;;;18.50;69.80;;;;;;5042591;28;43421;-73
2022/11/07 02:53:24;;;;;;;1.20;1.20;;;18.60;69.60;;;;;;5046779;28;43411;-74
2022/11/07 02:55:52;;;;;;;1.10;1.10;;;18.50;69.40;;;;;;5048678;28;43501;-74
2022/11/07 02:58:20;;;;;;;1.30;1.30;;;18.50;70.30;;;;;;5048860;28;43615;-72
2022/11/07 03:00:50;;;;;;;3.07;1.20;;;18.40;69.70;;;;;;5048732;28;43372;-75
2022/11/07 03:03:17;;;;;;;1.70;1.13;;;18.40;70.00;;;;;;5045394;28;43458;-74
2022/11/07 03:05:45;;;;;;;1.30;1.30;;;18.30;70.20;;;;;;5032276;28;43512;-74
2022/11/07 03:08:13;;;;;;;1.20;1.20;;;18.30;70.40;;;;;;5028220;28;45583;-74
2022/11/07 03:10:41;;;;;;;1.20;1.20;;;18.30;70.30;;;;;;5042722;28;43731;-74
2022/11/07 03:13:09;;;;;;;1.47;1.47;;;18.20;70.30;;;;;;5042145;28;43404;-75
2022/11/07 03:15:37;;;;;;;1.20;1.20;;;18.20;70.40;;;;;;5030535;28;43388;-75
2022/11/07 03:18:06;;;;;;;1.30;1.30;;;18.20;70.50;;;;;;5043920;28;43580;-74
2022/11/07 03:20:34;;;;;;;1.63;1.30;;;18.20;70.90;;;;;;5046954;28;43929;-74
2022/11/07 03:23:02;;;;;;;1.10;1.10;;;18.20;70.90;;;;;;5042227;28;43637;-75
2022/11/07 03:25:30;;;;;;;1.17;1.17;;;18.20;70.70;;;;;;5044447;28;43377;-74
2022/11/07 03:27:58;;;;;;;1.20;1.20;;;18.20;70.70;;;;;;5042139;28;43612;-75
2022/11/07 03:30:26;;;;;;;1.30;1.30;;;18.20;70.70;;;;;;5045023;28;43424;-74
2022/11/07 03:32:54;;;;;;;1.10;1.10;;;18.10;70.60;;;;;;5048034;28;43458;-74
2022/11/07 03:35:23;;;;;;;1.20;1.20;;;18.10;71.00;;;;;;5042217;28;44017;-75
2022/11/07 03:37:51;;;;;;;1.23;1.23;;;18.20;71.10;;;;;;5028448;28;45843;-75
2022/11/07 03:40:19;;;;;;;1.27;1.27;;;18.30;70.80;;;;;;5024003;28;44555;-74
2022/11/07 03:42:47;;;;;;;1.20;1.20;;;18.40;70.30;;;;;;5042032;28;43412;-75
2022/11/07 03:45:15;;;;;;;1.20;1.20;;;18.40;70.00;;;;;;5044738;28;43485;-74
2022/11/07 03:47:44;;;;;;;1.20;1.20;;;18.40;69.90;;;;;;5052697;28;45331;-75
2022/11/07 03:50:13;;;;;;;1.30;1.30;;;18.40;70.10;;;;;;5047537;28;43496;-74
2022/11/07 03:52:42;;;;;;;1.10;1.10;;;18.40;70.30;;;;;;5041840;28;43451;-75
2022/11/07 03:55:10;;;;;;;1.37;1.37;;;18.40;70.10;;;;;;5048407;28;43449;-73
2022/11/07 03:57:38;;;;;;;1.07;1.07;;;18.30;70.10;;;;;;5047408;28;43889;-75
2022/11/07 04:00:07;;;;;;;1.20;1.20;;;18.30;70.10;;;;;;5029367;28;44899;-74
2022/11/07 04:02:41;;;;;;;1.23;1.23;;;18.30;70.30;;;;;;5047768;28;43377;-73
2022/11/07 04:05:10;;;;;;;1.53;1.40;;;18.20;70.50;;;;;;5041625;28;43367;-75
2022/11/07 04:07:38;;;;;;;1.30;1.30;;;18.20;70.70;;;;;;5047251;28;44055;-75
2022/11/07 04:10:07;;;;;;;1.37;1.30;;;18.20;70.60;;;;;;5047526;28;43936;-74
2022/11/07 04:18:06;;;;;;;1.00;1.00;;;18.20;70.70;;;;;;5046588;28;43568;-73
2022/11/07 04:20:34;;;;;;;1.20;1.20;;;18.10;71.00;;;;;;5032872;28;44290;-75
2022/11/07 04:23:02;;;;;;;1.10;1.10;;;18.10;70.90;;;;;;5047786;28;44358;-74
2022/11/07 04:28:17;;;;;;;1.20;1.20;;;18.20;70.70;;;;;;5047090;28;43905;-74
2022/11/07 04:30:44;;;;;;;1.50;1.00;;;18.10;70.60;;;;;;5047230;28;43823;-75
2022/11/07 04:33:12;;;;;;;1.10;1.10;;;18.10;70.70;;;;;;5047315;28;43985;-74
2022/11/07 04:35:41;;;;;;;1.23;1.23;;;18.10;71.10;;;;;;5047834;28;43472;-76
2022/11/07 04:38:09;;;;;;;1.20;1.20;;;18.10;71.00;;;;;;5046574;28;43591;-75
2022/11/07 04:40:38;;;;;;;1.30;1.30;;;18.20;70.60;;;;;;5046841;28;43459;-74
2022/11/07 04:43:08;;;;;;;1.30;1.30;;;18.30;70.30;;;;;;5047090;28;43375;-73
2022/11/07 04:45:36;;;;;;;1.50;1.40;;;18.50;70.60;;;;;;5029156;28;43572;-74
2022/11/07 04:48:04;;;;;;;1.57;1.57;;;18.50;69.40;;;;;;5052674;28;45258;-75
2022/11/07 04:50:32;;;;;;;1.87;1.60;;;18.60;69.40;;;;;;5044238;28;43933;-74
2022/11/07 04:53:00;;;;;;;1.30;1.30;;;18.50;69.40;;;;;;5047303;28;43578;-76
2022/11/07 04:55:30;;;;;;;1.20;1.20;;;18.40;69.50;;;;;;5047252;28;43827;-75
2022/11/07 04:57:59;;;;;;;1.30;1.30;;;18.40;69.80;;;;;;5046469;28;43596;-73
2022/11/07 05:00:27;;;;;;;1.40;1.40;;;18.30;70.00;;;;;;5046627;28;43547;-74
2022/11/07 05:02:55;;;;;;;1.60;1.50;;;18.30;70.30;;;;;;5031470;28;43502;-74
2022/11/07 05:05:23;;;;;;;1.20;1.20;;;18.30;70.30;;;;;;5047052;28;43427;-74
2022/11/07 05:07:51;;;;;;;1.33;1.33;;;18.30;70.40;;;;;;5028318;28;45957;-73
2022/11/07 05:10:20;;;;;;;1.30;1.30;;;18.20;70.30;;;;;;5046005;28;43378;-76
2022/11/07 05:12:48;;;;;;;1.87;1.70;;;18.20;70.40;;;;;;5028376;28;43419;-74
2022/11/07 05:15:17;;;;;;;1.53;1.50;;;18.20;70.60;;;;;;5047229;28;43513;-75
2022/11/07 05:17:45;;;;;;;1.43;1.43;;;18.20;70.80;;;;;;5027643;28;45342;-75
2022/11/07 05:20:25;;;;;;;1.50;1.50;;;18.20;70.60;;;;;;5046565;28;43970;-73
2022/11/07 05:25:38;;;;;;;1.30;1.30;;;18.20;70.60;;;;;;5042460;28;43428;-74
2022/11/07 05:28:06;;;;;;;1.50;1.50;;;18.10;70.60;;;;;;5046086;28;43600;-73
2022/11/07 05:30:38;;;;;;;1.47;1.40;;;18.10;70.90;;;;;;5046372;28;44444;-75
2022/11/07 05:33:06;;;;;;;1.97;1.83;;;18.10;71.00;;;;;;5046506;28;43400;-75
2022/11/07 05:35:34;;;;;;;1.90;1.70;;;18.20;70.70;;;;;;5023902;28;43544;-75
2022/11/07 05:38:02;;;;;;;1.67;1.60;;;18.30;70.40;;;;;;5025949;28;44685;-74
2022/11/07 05:40:30;;;;;;;1.53;1.53;;;18.40;69.90;;;;;;5046127;28;43412;-74
2022/11/07 05:43:01;;;;;;;1.87;1.77;;;18.50;69.60;;;;;;5027987;28;43469;-73
2022/11/07 05:45:29;;;;;;;2.07;1.40;;;18.50;69.50;;;;;;5046886;28;43752;-75
2022/11/07 05:47:58;;;;;;;1.60;1.50;;;18.40;69.60;;;;;;5046061;28;43817;-74
2022/11/07 05:50:26;;;;;;;1.70;1.60;;;18.40;69.80;;;;;;5042644;28;43512;-74
2022/11/07 05:52:54;;;;;;;1.50;1.50;;;18.30;69.90;;;;;;5046018;28;43474;-74
2022/11/07 05:55:23;;;;;;;1.57;1.57;;;18.30;70.30;;;;;;5046615;28;43490;-73
2022/11/07 05:57:50;;;;;;;1.67;1.57;;;18.20;70.30;;;;;;5045550;28;43905;-75
2022/11/07 06:00:19;;;;;;;1.97;1.87;;;18.20;70.30;;;;;;5027696;28;44393;-74
2022/11/07 06:02:54;;;;;;;1.73;1.63;;;18.20;70.30;;;;;;5028036;28;43408;-75
2022/11/07 06:05:23;;;;;;;1.60;1.60;;;18.20;70.40;;;;;;5027644;28;43532;-74
2022/11/07 06:07:51;;;;;;;1.90;1.80;;;18.20;70.50;;;;;;5027786;28;46097;-75
2022/11/07 06:10:19;;;;;;;1.50;1.50;;;18.10;70.70;;;;;;5024436;28;43467;-73
2022/11/07 06:12:47;;;;;;;1.67;1.57;;;18.20;70.80;;;;;;5045806;28;43430;-75
2022/11/07 06:15:22;;;;;;;1.53;1.43;;;18.20;70.60;;;;;;5046382;28;43427;-74
2022/11/07 06:17:49;;;;;;;1.40;1.40;;;18.20;70.60;;;;;;5045512;28;44119;-73
2022/11/07 06:20:17;;;;;;;1.90;1.80;;;18.20;70.60;;;;;;5045802;28;43399;-74
2022/11/07 06:22:46;;;;;;;2.00;1.90;;;18.20;70.70;;;;;;5045823;28;43485;-74
2022/11/07 06:25:14;;;;;;;1.87;1.77;;;18.10;70.90;;;;;;5045702;28;43657;-74
2022/11/07 06:27:43;;;;;;;1.90;1.80;;;18.20;70.80;;;;;;5029689;28;45685;-73
2022/11/07 06:30:12;;;;;;;1.83;1.73;;;18.30;70.50;;;;;;5049188;28;43686;-73
2022/11/07 06:32:43;;;;;;;1.50;1.50;;;18.40;70.10;;;;;;5049895;28;44036;-74
2022/11/07 06:35:11;;;;;;;2.00;1.90;;;18.40;69.90;;;;;;5047596;28;43599;-74
2022/11/07 06:37:39;;;;;;;2.10;1.80;;;18.40;69.90;;;;;;5048857;28;43615;-74
2022/11/07 06:40:09;;;;;;;1.67;1.67;;;18.40;70.10;;;;;;5049035;28;43420;-75
2022/11/07 06:42:38;;;;;;;1.90;1.80;;;18.40;70.10;;;;;;5049333;28;43527;-76
2022/11/07 06:45:07;;;;;;;2.10;1.90;;;18.30;70.00;;;;;;5049617;28;43469;-75
2022/11/07 06:47:35;;;;;;;1.70;1.60;;;18.30;70.10;;;;;;5049320;28;43823;-74
2022/11/07 06:50:03;;;;;;;1.70;1.60;;;18.30;70.30;;;;;;5047425;28;43492;-74
2022/11/07 06:52:31;;;;;;;2.00;1.90;;;18.20;71.20;;;;;;5048568;28;43460;-73
2022/11/07 06:54:59;;;;;;;1.60;1.60;;;18.20;70.60;;;;;;5049372;28;43397;-75
2022/11/07 06:57:28;;;;;;;1.90;1.80;;;18.20;70.40;;;;;;5048867;28;43877;-75
2022/11/07 06:59:56;;;;;;;1.70;1.60;;;18.20;70.50;;;;;;5048866;28;43404;-74
2022/11/07 07:02:24;;;;;;;1.47;1.47;;;18.20;70.60;;;;;;5048661;28;43482;-74
2022/11/07 07:05:12;;;;;;;1.80;1.77;;;18.20;70.60;;;;;;5049257;28;43396;-74
2022/11/07 07:07:47;;;;;;;1.73;1.67;;;18.10;71.00;;;;;;5030403;28;45680;-75
2022/11/07 07:10:15;;;;;;;2.00;1.90;;;18.20;70.90;;;;;;5048590;28;43442;-73
2022/11/07 07:12:44;;;;;;;1.63;1.63;;;18.30;70.60;;;;;;5048806;28;43447;-76
2022/11/07 07:15:12;;;;;;;1.73;1.70;;;18.40;70.20;;;;;;5048951;28;43934;-76
2022/11/07 07:17:40;;;;;;;1.87;1.73;;;18.40;70.00;;;;;;5048474;28;43602;-74
2022/11/07 07:20:09;;;;;;;1.70;1.70;;;18.40;70.00;;;;;;5048817;28;43466;-74
2022/11/07 07:22:38;;;;;;;1.63;1.53;;;18.30;70.20;;;;;;5048656;28;43944;-75
2022/11/07 07:25:07;;;;;;;1.63;1.53;;;18.30;70.10;;;;;;5051895;28;44031;-74
2022/11/07 07:27:35;;;;;;;1.80;1.70;;;18.30;70.10;;;;;;5030272;28;43881;-73
2022/11/07 07:30:05;;;;;;;1.60;1.50;;;18.30;70.20;;;;;;5048567;28;43449;-74
2022/11/07 07:32:35;;;;;;;1.90;1.80;;;18.30;70.30;;;;;;5045476;28;44035;-73
2022/11/07 07:35:03;;;;;;;1.83;1.73;;;18.20;70.40;;;;;;5049117;28;43396;-74
2022/11/07 07:37:31;;;;;;;1.80;1.70;;;18.20;70.60;;;;;;5031937;28;45881;-75
2022/11/07 07:39:59;;;;;;;1.80;1.70;;;18.20;70.60;;;;;;5047904;28;43445;-73
2022/11/07 07:42:27;;;;;;;2.03;1.70;;;18.20;70.50;;;;;;5048157;28;43434;-74
2022/11/07 07:44:55;;;;;;;1.80;1.70;;;18.20;70.60;;;;;;5030540;28;43483;-75
2022/11/07 07:47:24;;;;;;;1.57;1.57;;;18.20;70.60;;;;;;5047996;28;43979;-75
2022/11/07 07:49:52;;;;;;;1.77;1.73;;;18.20;70.90;;;;;;5048470;28;43419;-74
2022/11/07 07:52:20;;;;;;;1.90;1.80;;;18.20;70.90;;;;;;5046921;28;43886;-74
2022/11/07 07:54:48;;;;;;;2.00;1.90;;;18.30;70.80;;;;;;5048397;28;43618;-75
2022/11/07 07:57:16;;;;;;;1.50;1.50;;;18.30;70.20;;;;;;5029827;28;45376;-74
2022/11/07 07:59:44;;;;;;;1.90;1.80;;;18.40;70.10;;;;;;5029695;28;44544;-75
2022/11/07 08:02:12;;;;;;;1.50;1.50;;;18.40;70.00;;;;;;5048323;28;43463;-73
2022/11/07 08:04:42;;;;;;;1.60;1.60;;;18.40;70.30;;;;;;5048279;28;43520;-74
2022/11/07 08:07:09;;;;;;;2.07;1.87;;;18.30;70.20;;;;;;5048264;28;43596;-74
2022/11/07 08:09:37;;;;;;;1.73;1.73;;;18.30;70.20;;;;;;5047772;28;43960;-75
2022/11/07 08:12:07;;;;;;;1.60;1.50;;;18.30;70.20;;;;;;5048356;28;43391;-75
2022/11/07 08:14:35;;;;;;;1.80;1.80;;;18.30;70.30;;;;;;5048386;28;43364;-75
2022/11/07 08:17:03;;;;;;;1.53;1.53;;;18.20;70.40;;;;;;5048376;28;43599;-75
2022/11/07 08:19:31;;;;;;;1.60;1.50;;;18.20;70.70;;;;;;5047711;28;43436;-74
2022/11/07 08:22:00;;;;;;;1.87;1.77;;;18.20;70.60;;;;;;5047896;28;43976;-74
2022/11/07 08:24:28;;;;;;;1.70;1.60;;;18.20;71.30;;;;;;5048081;28;43416;-75
2022/11/07 08:26:56;;;;;;;1.40;1.40;;;18.20;70.60;;;;;;5047444;28;43885;-72
2022/11/07 08:29:24;;;;;;;1.97;1.87;;;18.20;70.60;;;;;;5029437;28;44393;-74
2022/11/07 08:31:52;;;;;;;1.80;1.73;;;18.20;70.70;;;;;;5047460;28;43415;-74
2022/11/07 08:34:20;;;;;;;1.60;1.60;;;18.20;71.20;;;;;;5029254;28;44142;-75
2022/11/07 08:36:48;;;;;;;2.00;1.90;;;18.20;70.80;;;;;;5028726;28;45237;-74
2022/11/07 08:39:17;;;;;;;1.80;1.70;;;18.40;70.50;;;;;;5047215;28;43868;-75
2022/11/07 08:41:45;;;;;;;1.90;1.80;;;18.50;70.00;;;;;;5046824;28;43492;-76
2022/11/07 08:44:13;;;;;;;2.00;1.90;;;18.60;69.70;;;;;;5047657;28;43461;-74
2022/11/07 08:46:40;;;;;;;1.83;1.73;;;18.60;69.40;;;;;;5047251;28;43830;-74
2022/11/07 08:49:08;;;;;;;1.60;1.60;;;18.60;69.50;;;;;;5028780;28;44238;-73
2022/11/07 08:51:36;;;;;;;1.63;1.63;;;18.50;69.60;;;;;;5043367;28;43371;-75
2022/11/07 08:54:05;;;;;;;1.70;1.70;;;18.40;69.70;;;;;;5047196;28;43393;-74
2022/11/07 08:56:34;;;;;;;1.67;1.63;;;18.40;70.00;;;;;;5047177;28;43838;-73
2022/11/07 08:59:02;;;;;;;3.17;1.87;;;18.30;70.30;;;;;;5046726;28;43399;-74
2022/11/07 09:01:30;;;;;;;1.50;1.50;;;18.30;70.30;;;;;;5046908;28;43861;-74
2022/11/07 09:03:58;;;;;;;1.50;1.50;;;18.30;71.10;;;;;;5029158;28;43419;-73
2022/11/07 09:06:26;;;;;;;1.67;1.67;;;18.30;70.40;;;;;;5047028;28;43698;-73
2022/11/07 09:08:54;;;;;;;1.53;1.53;;;18.20;70.30;;;;;;5029057;28;44437;-75
2022/11/07 09:11:22;;;;;;;1.83;1.73;;;18.20;70.50;;;;;;5028461;28;43528;-75
2022/11/07 09:13:51;;;;;;;1.67;1.57;;;18.20;70.80;;;;;;5047301;28;43429;-74
2022/11/07 09:16:20;;;;;;;1.60;1.60;;;18.20;70.90;;;;;;5046810;28;43663;-74
2022/11/07 09:18:48;;;;;;;1.70;1.63;;;18.30;70.60;;;;;;5046867;28;43429;-75
2022/11/07 09:21:16;;;;;;;1.50;1.50;;;18.30;70.30;;;;;;5046893;28;43540;-74
2022/11/07 09:23:49;;;;;;;1.43;1.43;;;18.30;70.30;;;;;;5047196;28;43480;-74
2022/11/07 09:26:17;;;;;;;1.97;1.87;;;18.30;70.30;;;;;;5046160;28;43951;-75
2022/11/07 09:28:45;;;;;;;2.03;1.93;;;18.30;70.70;;;;;;5046514;28;43396;-74
2022/11/07 09:31:21;;;;;;;1.67;1.60;;;18.30;70.50;;;;;;5040308;28;43372;-73
2022/11/07 09:33:49;;;;;;;1.70;1.60;;;18.30;70.50;;;;;;5047202;28;43531;-75
2022/11/07 09:36:17;;;;;;;1.57;1.57;;;18.30;70.50;;;;;;5046459;28;43596;-75
2022/11/07 09:38:45;;;;;;;1.87;1.77;;;18.20;70.40;;;;;;5046161;28;43490;-74
2022/11/07 09:41:18;;;;;;;1.90;1.80;;;18.20;70.60;;;;;;5046555;28;43359;-75
2022/11/07 09:44:09;;;;;;;1.60;1.60;;;18.20;70.90;;;;;;5046233;28;43476;-76
2022/11/07 09:46:49;;;;;;;1.63;1.57;;;18.20;70.60;;;;;;5027806;28;45365;-76
2022/11/07 09:49:19;;;;;;;1.63;1.60;;;18.20;70.60;;;;;;5027967;28;43520;-74
2022/11/07 09:51:49;;;;;;;1.40;1.40;;;18.20;70.60;;;;;;5045764;28;43461;-74
2022/11/07 09:54:18;;;;;;;1.60;1.60;;;18.20;70.70;;;;;;5046750;28;43414;-75
2022/11/07 09:56:46;;;;;;;1.83;1.73;;;18.20;70.90;;;;;;5046330;28;43592;-74
2022/11/07 09:59:17;;;;;;;1.90;1.80;;;18.20;71.10;;;;;;5046144;28;43353;-74
2022/11/07 10:01:46;;;;;;;1.87;1.77;;;18.30;70.80;;;;;;5039962;28;43415;-74
2022/11/07 10:04:15;;;;;;;1.60;1.60;;;18.40;70.60;;;;;;5046873;28;43410;-74
2022/11/07 10:06:56;;;;;;;1.50;1.50;;;18.50;70.70;;;;;;5049802;28;43855;-73
2022/11/07 10:09:27;;;;;;;1.70;1.70;;;18.60;69.70;;;;;;5031278;28;44700;-74
2022/11/07 10:12:00;;;;;;;1.77;1.67;;;18.60;69.50;;;;;;5049445;28;43404;-75
2022/11/07 10:14:32;;;;;;;1.73;1.63;;;18.50;69.50;;;;;;5050003;28;43922;-75
2022/11/07 10:17:08;;;;;;;1.50;1.50;;;18.50;69.70;;;;;;5049862;28;43885;-73
2022/11/07 10:19:42;;;;;;;1.87;1.77;;;18.40;69.90;;;;;;5048126;28;44073;-74
2022/11/07 10:22:16;;;;;;;1.40;1.40;;;18.30;70.10;;;;;;5049543;28;44523;-75
2022/11/07 10:24:52;;;;;;;1.33;1.33;;;18.30;70.40;;;;;;5044616;28;43450;-75
2022/11/07 10:27:20;;;;;;;1.53;1.50;;;18.30;70.40;;;;;;5044096;28;43893;-74
2022/11/07 10:29:52;;;;;;;1.67;1.67;;;18.30;70.40;;;;;;5049467;28;43415;-74
2022/11/07 10:32:23;;;;;;;1.63;1.57;;;18.20;70.40;;;;;;5049623;28;43842;-75
2022/11/07 10:34:55;;;;;;;1.77;1.67;;;18.20;70.50;;;;;;5051564;28;43470;-74
2022/11/07 10:37:23;;;;;;;1.33;1.30;;;18.20;70.90;;;;;;5027514;28;46362;-74
2022/11/07 10:39:51;;;;;;;1.50;1.50;;;18.20;70.80;;;;;;5048943;28;43542;-74
2022/11/07 10:42:20;;;;;;;1.43;1.43;;;18.30;70.50;;;;;;5049763;28;43375;-75
2022/11/07 10:44:48;;;;;;;1.47;1.47;;;18.30;70.30;;;;;;5049706;28;43511;-75
2022/11/07 10:47:17;;;;;;;1.40;1.37;;;18.30;70.20;;;;;;5048537;28;43916;-74
2022/11/07 10:49:55;;;;;;;1.57;1.57;;;18.30;70.30;;;;;;5030986;28;45392;-74
2022/11/07 10:52:23;;;;;;;1.40;1.40;;;18.30;70.70;;;;;;5031236;28;43887;-76
2022/11/07 10:54:51;;;;;;;1.60;1.50;;;18.30;70.60;;;;;;5049272;28;43933;-75
2022/11/07 10:57:20;;;;;;;1.40;1.40;;;18.30;70.50;;;;;;5049134;28;44785;-75
2022/11/07 10:59:55;;;;;;;1.40;1.40;;;18.30;70.50;;;;;;5030534;28;44600;-74
2022/11/07 11:02:23;;;;;;;1.70;1.60;;;18.20;70.50;;;;;;5049027;28;43507;-74
2022/11/07 11:04:53;;;;;;;1.47;1.47;;;18.20;70.80;;;;;;5033328;28;44018;-75
2022/11/07 11:07:24;;;;;;;1.43;1.43;;;18.20;70.90;;;;;;5049962;28;45623;-73
2022/11/07 11:09:56;;;;;;;1.40;1.40;;;18.20;70.80;;;;;;5030642;28;44936;-75
2022/11/07 11:12:25;;;;;;;1.40;1.40;;;18.20;70.70;;;;;;5042130;28;43448;-75
2022/11/07 11:15:04;;;;;;;1.33;1.33;;;18.20;70.80;;;;;;5024129;28;43483;-74
2022/11/07 11:17:32;;;;;;;1.50;1.50;;;18.20;70.80;;;;;;5044215;28;43588;-74
2022/11/07 11:20:02;;;;;;;1.73;1.63;;;18.10;71.00;;;;;;5030746;28;44793;-74
2022/11/07 11:22:30;;;;;;;1.60;1.60;;;18.20;71.20;;;;;;5029212;28;43475;-74
2022/11/07 11:24:58;;;;;;;1.70;1.60;;;18.20;70.90;;;;;;5048879;28;43377;-73
2022/11/07 11:27:26;;;;;;;1.43;1.43;;;18.40;70.70;;;;;;5048521;28;43623;-75
2022/11/07 11:29:56;;;;;;;1.40;1.40;;;18.50;70.20;;;;;;5048745;28;43558;-73
2022/11/07 11:32:27;;;;;;;1.70;1.60;;;18.50;69.70;;;;;;5048617;28;43495;-74
2022/11/07 11:35:19;;;;;;;1.50;1.50;;;18.50;69.60;;;;;;5048934;28;43951;-76
2022/11/07 11:37:49;;;;;;;1.23;1.23;;;18.50;69.70;;;;;;5026558;28;45635;-74
2022/11/07 11:40:19;;;;;;;1.30;1.30;;;18.40;69.80;;;;;;5047921;28;43493;-75
2022/11/07 11:42:50;;;;;;;1.67;1.60;;;18.40;70.10;;;;;;5048045;28;43418;-73
2022/11/07 11:45:21;;;;;;;1.47;1.47;;;18.30;70.40;;;;;;5024356;28;43460;-74
2022/11/07 11:47:55;;;;;;;1.47;1.37;;;18.30;70.60;;;;;;5042971;28;43768;-74
2022/11/07 11:50:28;;;;;;;1.53;1.53;;;18.30;70.60;;;;;;5028786;28;44806;-73
2022/11/07 11:52:57;;;;;;;1.17;1.17;;;18.20;70.50;;;;;;5030092;28;43380;-75
2022/11/07 11:55:25;;;;;;;1.20;1.20;;;18.20;70.60;;;;;;5048481;28;43432;-76
2022/11/07 11:57:59;;;;;;;1.60;1.60;;;18.20;70.70;;;;;;5048185;28;43607;-73
2022/11/07 12:00:27;;;;;;;1.43;1.43;;;18.20;71.10;;;;;;5048115;28;43407;-75
2022/11/07 12:03:06;;;;;;;1.70;1.70;;;18.20;71.10;;;;;;5047984;28;43897;-73
2022/11/07 12:06:15;;;;;;;1.30;1.30;;;18.30;70.90;;;;;;5048222;28;43539;-75
2022/11/07 12:09:15;;;;;;;1.27;1.27;;;18.40;70.50;;;;;;5026622;28;45255;-74
2022/11/07 12:11:51;;;;;;;1.43;1.43;;;18.40;70.20;;;;;;5042582;28;43499;-73
2022/11/07 12:14:35;;;;;;;1.50;1.50;;;18.40;70.30;;;;;;5048062;28;44033;-74
2022/11/07 12:17:04;;;;;;;1.10;1.10;;;18.30;70.50;;;;;;5049487;28;43633;-75
2022/11/07 12:19:36;;;;;;;1.17;1.17;;;18.30;70.30;;;;;;5047713;28;43600;-74
2022/11/07 12:22:07;;;;;;;1.30;1.30;;;18.30;70.40;;;;;;5047950;28;43515;-73
2022/11/07 12:24:39;;;;;;;1.40;1.40;;;18.30;70.40;;;;;;5047858;28;43400;-76
2022/11/07 12:27:12;;;;;;;1.20;1.20;;;18.30;70.60;;;;;;5046858;28;43914;-75
2022/11/07 12:29:50;;;;;;;1.27;1.20;;;18.20;70.90;;;;;;5029467;28;46465;-75
2022/11/07 12:32:21;;;;;;;1.30;1.30;;;18.20;70.90;;;;;;5043363;28;44914;-73
2022/11/07 12:35:07;;;;;;;1.47;1.37;;;18.20;70.80;;;;;;5047877;28;43392;-75
2022/11/07 12:37:52;;;;;;;1.20;1.20;;;18.20;70.90;;;;;;5029151;28;43595;-75
2022/11/07 12:40:27;;;;;;;1.17;1.17;;;18.20;70.90;;;;;;5047012;28;44015;-74
2022/11/07 12:43:07;;;;;;;1.30;1.30;;;18.10;71.10;;;;;;5044204;28;43499;-75
2022/11/07 12:45:50;;;;;;;1.30;1.30;;;18.10;71.30;;;;;;5043234;28;43920;-74
2022/11/07 12:48:38;;;;;;;1.30;1.30;;;18.10;71.00;;;;;;5047419;28;43469;-74
2022/11/07 12:51:09;;;;;;;1.20;1.20;;;18.10;71.00;;;;;;5040460;28;43932;-73
2022/11/07 12:53:40;;;;;;;1.40;1.40;;;18.10;71.00;;;;;;5046907;28;43352;-74
2022/11/07 12:56:10;;;;;;;1.40;1.40;;;18.10;71.00;;;;;;5047581;28;43916;-75
2022/11/07 12:58:38;;;;;;;1.17;1.10;;;18.10;71.50;;;;;;5047653;28;43978;-75
2022/11/07 13:01:06;;;;;;;1.43;1.40;;;18.20;71.40;;;;;;5024690;28;45706;-75
2022/11/07 13:03:42;;;;;;;1.40;1.40;;;18.30;71.10;;;;;;5047477;28;43409;-75
2022/11/07 13:06:14;;;;;;;1.30;1.30;;;18.40;70.60;;;;;;5046891;28;44030;-74
2022/11/07 13:08:48;;;;;;;1.40;1.40;;;18.50;70.10;;;;;;5047406;28;43448;-75
2022/11/07 13:11:18;;;;;;;1.23;1.23;;;18.60;69.90;;;;;;5047018;28;43605;-72
2022/11/07 13:13:55;;;;;;;1.30;1.30;;;18.50;69.70;;;;;;5046915;28;43902;-73
2022/11/07 13:16:24;;;;;;;1.27;1.27;;;18.50;69.90;;;;;;5046835;28;43866;-74
2022/11/07 13:18:52;;;;;;;1.10;1.10;;;18.40;70.00;;;;;;5047339;28;43427;-76